Sisseton, SD

1:11 PM CDT on September 18, 2014 (GMT -0500)
Coteau Des prairie | Change Station
CLOSE
Current Station
Personal Weather Station
Location: Veblen, SD
Elevation: 1883 ft
Nearby Weather Stations

Elev 1883 ft 45.77 °N, 97.37 °W | Updated 1 second ago

Mostly Cloudy
Mostly Cloudy
74.4 °F
Feels Like 77 °F
N
0.0
Wind Variable Wind from ESE
Gusts 2.9 mph

Today
High -- | Low -- °F
--% Chance of Precip.
Yesterday
High -- | Low -- °F
Precip. -- in
7:10 AM 7:33 PM
Waning Crescent, 25% visible
Pressure 29.99 in
Visibility 10.0 miles
Clouds Mostly Cloudy 800 ft
Heat Index 77 °F
Dew Point 60 °F
Humidity 59%
Rainfall 0.00 in
Snow Depth 0 in
UV 4 out of 12
Pollen 3.30 out of 12
Air Quality Not available.
Flu Activity Not available.
METAR KETH 181756Z AUTO 12011G15KT 10SM BKN008 15/12 A2999 RMK AO2

More Conditions Fewer Conditions

Pressure 29.99 in
Visibility 10.0 miles
Clouds Mostly Cloudy 800 ft
Heat Index 77 °F
Dew Point 60 °F
Humidity 59%
Rainfall 0.00 in
Snow Depth 0 in
UV 4 out of 12
Pollen 3.30 out of 12
Air Quality Not available.
Flu Activity Not available.
METAR KETH 181756Z AUTO 12011G15KT 10SM BKN008 15/12 A2999 RMK AO2

More Conditions Fewer Conditions

10-Day Weather Forecast

Almanac

Astronomy

Sep. 18, 2014 Rise Set
Actual Time 7:10 AM CDT 7:33 PM CDT
Civil Twilight 6:40 AM CDT 8:03 PM CDT
Nautical Twilight 6:05 AM CDT 8:38 PM CDT
Astronomical Twilight 5:28 AM CDT 9:14 PM CDT
Moon 1:51 AM CDT 4:36 PM CDT
Length of Visible Light 13h 22m
Length of Day
12h 23m
Tomorrow will be 3m 11s shorter.
Waning Crescent, 25% of the Moon is Illuminated
Today
Waning Crescent
Sep 24
New
Oct 1
First Quarter
Oct 8
Full
Oct 15
Last Quarter

Today's Extremes

State Highs State Lows

Community

WunderPhotos

Upload Photos

1,754,410 photos uploaded!

Nearby

Snow Depth

Station Depth Elevation
Blind Park 0 in 6890 ft

Earthquake Activity

City Distance Mag. Time & Date
No recent earthquake activity has been reported nearby.
Minimum magnitude displayed is 2.5.

Coastal Water Temperatures

Place Temperature
No Stations Reporting

Nearby Weather Stations